Time;durP1;ratioP1;P1;durP2;ratioP2;P2;SDS_P1;SDS_P2;PMS_P1;PMS_P2;Temp;Humidity;BMP_temperature;BMP_pressure;BME280_temperature;BME280_humidity;BME280_pressure;Samples;Min_cycle;Max_cycle;Signal;HPM_P1;HPM_P2
2022/01/28 00:04:49;;;;;;;;;;;23.30;25.90;;;;;;5127167;27;19923;-52
2022/01/28 00:07:15;;;;;;;;;;;23.30;25.80;;;;;;5125433;27;20378;-49
2022/01/28 00:09:40;;;;;;;;;;;23.30;25.90;;;;;;5124533;27;19924;-51
2022/01/28 00:12:09;;;;;;;;;;;23.20;25.90;;;;;;5130129;27;19973;-51
2022/01/28 00:20:14;;;;;;;;;;;23.30;25.80;;;;;;5129791;27;19923;-50
2022/01/28 00:38:48;;;;;;;;;;;23.30;25.70;;;;;;5128603;27;20001;-57
2022/01/28 00:41:14;;;;;;;;;;;23.20;25.80;;;;;;5120418;27;19923;-47
2022/01/28 00:43:40;;;;;;;;;;;23.20;25.70;;;;;;5123671;27;19977;-51
2022/01/28 00:46:06;;;;;;;;;;;23.30;25.70;;;;;;5129227;27;20355;-49
2022/01/28 00:48:32;;;;;;;;;;;23.30;25.70;;;;;;5124224;27;19930;-49
2022/01/28 00:50:58;;;;;;;;;;;23.20;25.70;;;;;;5129382;27;19924;-47
2022/01/28 00:53:23;;;;;;;;;;;23.30;25.60;;;;;;5123866;27;20135;-50
2022/01/28 00:55:49;;;;;;;;;;;23.20;25.80;;;;;;5123791;27;19935;-47
2022/01/28 00:58:15;;;;;;;;;;;23.30;25.70;;;;;;5126352;27;19923;-47
2022/01/28 01:00:41;;;;;;;;;;;23.30;25.60;;;;;;5121581;27;20028;-48
2022/01/28 01:03:07;;;;;;;;;;;23.30;25.60;;;;;;5123394;27;19927;-47
2022/01/28 01:05:34;;;;;;;;;;;23.30;25.50;;;;;;5129163;27;19946;-55
2022/01/28 01:08:03;;;;;;;;;;;23.30;25.50;;;;;;5123896;27;19963;-55
2022/01/28 01:10:29;;;;;;;;;;;23.00;25.70;;;;;;5129094;27;19932;-55
2022/01/28 01:12:55;;;;;;;;;;;23.00;25.70;;;;;;5123622;27;20271;-53
2022/01/28 01:15:24;;;;;;;;;;;23.00;25.70;;;;;;5123305;27;20382;-53
2022/01/28 01:18:01;;;;;;;;;;;23.00;25.70;;;;;;5125155;27;19924;-51
2022/01/28 01:25:28;;;;;;;;;;;23.00;25.60;;;;;;5128721;27;19930;-52
2022/01/28 01:27:56;;;;;;;;;;;23.00;25.60;;;;;;5105032;27;20436;-52
2022/01/28 01:30:23;;;;;;;;;;;23.00;25.60;;;;;;5105347;27;20173;-51
2022/01/28 01:32:49;;;;;;;;;;;23.00;25.50;;;;;;5128627;27;19923;-50
2022/01/28 01:35:14;;;;;;;;;;;23.10;25.40;;;;;;5120087;27;20305;-50
2022/01/28 01:37:40;;;;;;;;;;;23.10;25.40;;;;;;5125658;27;19930;-53
2022/01/28 01:40:07;;;;;;;;;;;23.10;25.40;;;;;;5122607;27;19931;-51
2022/01/28 01:42:46;;;;;;;;;;;23.00;25.40;;;;;;5122840;27;19937;-51
2022/01/28 01:53:27;;;;;;;;;;;23.20;25.20;;;;;;5120225;27;19930;-51
2022/01/28 01:55:53;;;;;;;;;;;23.10;25.20;;;;;;5125887;27;19927;-51
2022/01/28 01:58:24;;;;;;;;;;;23.20;25.10;;;;;;5122344;27;19931;-51
2022/01/28 02:00:50;;;;;;;;;;;23.20;25.00;;;;;;5128135;27;20006;-48
2022/01/28 02:03:15;;;;;;;;;;;23.20;25.00;;;;;;5122415;27;20339;-47
2022/01/28 02:05:41;;;;;;;;;;;23.20;25.00;;;;;;5122487;27;20378;-47
2022/01/28 02:08:07;;;;;;;;;;;23.20;24.80;;;;;;5127901;27;20272;-48
2022/01/28 02:10:33;;;;;;;;;;;23.20;24.90;;;;;;5122228;27;19927;-48
2022/01/28 02:12:59;;;;;;;;;;;23.30;24.90;;;;;;5100009;27;20595;-48
2022/01/28 02:15:25;;;;;;;;;;;23.30;24.80;;;;;;5126501;27;19924;-51
2022/01/28 02:17:50;;;;;;;;;;;23.30;24.80;;;;;;5122134;27;20287;-53
2022/01/28 02:20:48;;;;;;;;;;;23.20;24.90;;;;;;5126965;27;19988;-55
2022/01/28 02:23:09;;;;;;;;;;;23.00;25.00;;;;;;5124951;27;19987;-49
2022/01/28 02:25:35;;;;;;;;;;;23.10;24.90;;;;;;5122099;27;19927;-51
2022/01/28 02:28:03;;;;;;;;;;;23.00;25.10;;;;;;5126750;27;19924;-56
2022/01/28 02:30:29;;;;;;;;;;;22.90;25.10;;;;;;5121198;27;19924;-51
2022/01/28 02:33:01;;;;;;;;;;;23.00;25.00;;;;;;5119522;27;20064;-50
2022/01/28 02:35:27;;;;;;;;;;;23.00;25.00;;;;;;5127171;27;19927;-50
2022/01/28 02:37:53;;;;;;;;;;;22.90;25.10;;;;;;5103594;27;19972;-48
2022/01/28 02:40:18;;;;;;;;;;;22.80;25.10;;;;;;5121851;27;19924;-50
2022/01/28 02:43:02;;;;;;;;;;;22.90;25.10;;;;;;5108997;27;20088;-48
2022/01/28 02:45:35;;;;;;;;;;;23.00;25.00;;;;;;5121827;27;19924;-48
2022/01/28 02:48:04;;;;;;;;;;;22.90;25.10;;;;;;5117388;27;19930;-56
2022/01/28 02:50:36;;;;;;;;;;;22.90;25.00;;;;;;5120520;27;19923;-51
2022/01/28 02:53:06;;;;;;;;;;;22.90;25.00;;;;;;5121017;27;19924;-52
2022/01/28 02:55:37;;;;;;;;;;;23.00;24.90;;;;;;5121953;27;20036;-53
2022/01/28 02:58:15;;;;;;;;;;;22.90;25.00;;;;;;5127234;28;20010;-51
2022/01/28 03:00:41;;;;;;;;;;;22.90;25.00;;;;;;5121572;28;19923;-50
2022/01/28 03:03:07;;;;;;;;;;;22.90;24.90;;;;;;5121519;28;19947;-50
2022/01/28 03:05:34;;;;;;;;;;;23.00;24.80;;;;;;5127178;28;19927;-50
2022/01/28 03:08:03;;;;;;;;;;;22.90;24.90;;;;;;5118149;28;20006;-48
2022/01/28 03:10:41;;;;;;;;;;;23.00;24.80;;;;;;5107491;28;19927;-50
2022/01/28 03:15:33;;;;;;;;;;;22.90;24.90;;;;;;5121594;28;19923;-51
2022/01/28 03:18:16;;;;;;;;;;;22.90;24.80;;;;;;5127087;28;19930;-49
2022/01/28 03:23:07;;;;;;;;;;;22.80;24.80;;;;;;5121456;28;19962;-48
2022/01/28 03:25:41;;;;;;;;;;;22.90;24.80;;;;;;5124501;28;19931;-50
2022/01/28 03:28:07;;;;;;;;;;;22.90;24.80;;;;;;5119265;28;20271;-52
2022/01/28 03:30:33;;;;;;;;;;;22.90;24.70;;;;;;5120855;28;19935;-50
2022/01/28 03:32:58;;;;;;;;;;;22.90;24.70;;;;;;5126824;28;20268;-51
2022/01/28 03:35:24;;;;;;;;;;;22.90;24.70;;;;;;5121414;28;20018;-49
2022/01/28 03:37:58;;;;;;;;;;;22.90;24.60;;;;;;5122361;28;19946;-54
2022/01/28 03:40:24;;;;;;;;;;;22.90;24.70;;;;;;5109844;28;19923;-52
2022/01/28 03:42:50;;;;;;;;;;;23.00;24.50;;;;;;5121374;28;20340;-49
2022/01/28 03:45:16;;;;;;;;;;;23.10;24.40;;;;;;5122724;28;19965;-51
2022/01/28 03:47:41;;;;;;;;;;;23.00;24.50;;;;;;5119946;28;19970;-51
2022/01/28 03:50:07;;;;;;;;;;;23.00;24.50;;;;;;5121066;28;20298;-50
2022/01/28 03:52:33;;;;;;;;;;;23.00;24.50;;;;;;5126762;28;20221;-49
2022/01/28 03:54:59;;;;;;;;;;;23.00;24.50;;;;;;5121313;28;21388;-51
2022/01/28 03:57:25;;;;;;;;;;;23.10;24.40;;;;;;5121117;28;20115;-50
2022/01/28 03:59:50;;;;;;;;;;;23.10;24.40;;;;;;5126668;28;19930;-50
2022/01/28 04:02:20;;;;;;;;;;;23.00;24.50;;;;;;5119160;28;19930;-48
2022/01/28 04:12:50;;;;;;;;;;;23.00;24.60;;;;;;5124714;27;20135;-48
2022/01/28 04:17:47;;;;;;;;;;;23.00;24.50;;;;;;5124419;27;19931;-51
2022/01/28 04:20:13;;;;;;;;;;;23.20;24.30;;;;;;5129694;27;20393;-48
2022/01/28 04:22:39;;;;;;;;;;;23.00;24.50;;;;;;5120737;27;19952;-46
2022/01/28 04:25:04;;;;;;;;;;;23.20;24.40;;;;;;5123247;27;19923;-43
2022/01/28 04:27:30;;;;;;;;;;;23.10;24.50;;;;;;5129859;27;19931;-45
2022/01/28 04:29:56;;;;;;;;;;;23.30;24.30;;;;;;5124475;27;19935;-48
2022/01/28 04:32:24;;;;;;;;;;;23.30;24.30;;;;;;5124555;27;19976;-52
2022/01/28 04:34:49;;;;;;;;;;;23.20;24.30;;;;;;5129745;27;19934;-53
2022/01/28 04:37:30;;;;;;;;;;;23.20;24.30;;;;;;5124008;27;19923;-50
2022/01/28 04:40:33;;;;;;;;;;;23.10;24.40;;;;;;5121406;27;20331;-52
2022/01/28 04:45:23;;;;;;;;;;;23.10;24.40;;;;;;5123793;27;20291;-52
2022/01/28 04:50:57;;;;;;;;;;;23.00;24.50;;;;;;5129251;27;20336;-47
2022/01/28 04:53:37;;;;;;;;;;;23.00;24.50;;;;;;5124082;27;19923;-48
2022/01/28 04:58:47;;;;;;;;;;;23.00;24.40;;;;;;5126232;27;19930;-50
2022/01/28 05:28:20;;;;;;;;;;;23.20;24.30;;;;;;5087174;27;20027;-49
2022/01/28 05:30:46;;;;;;;;;;;23.30;24.20;;;;;;5123324;27;20242;-48
2022/01/28 05:33:12;;;;;;;;;;;23.20;24.20;;;;;;5128702;27;20264;-47
2022/01/28 05:35:37;;;;;;;;;;;23.30;24.10;;;;;;5120053;27;20363;-48
2022/01/28 05:38:03;;;;;;;;;;;23.30;24.10;;;;;;5120856;27;20233;-48
2022/01/28 05:40:29;;;;;;;;;;;23.30;24.10;;;;;;5128442;27;19924;-49
2022/01/28 05:42:55;;;;;;;;;;;23.30;24.10;;;;;;5123193;27;20309;-52
2022/01/28 05:45:20;;;;;;;;;;;23.20;24.30;;;;;;5128462;27;19927;-50
2022/01/28 05:47:46;;;;;;;;;;;23.20;24.20;;;;;;5122952;27;19923;-50
2022/01/28 05:50:12;;;;;;;;;;;23.10;24.30;;;;;;5122628;27;19928;-50
2022/01/28 05:52:38;;;;;;;;;;;23.00;24.30;;;;;;5127689;27;19927;-50
2022/01/28 05:55:04;;;;;;;;;;;23.10;24.20;;;;;;5118883;27;20375;-50
2022/01/28 05:57:30;;;;;;;;;;;23.00;24.30;;;;;;5121439;27;20155;-48
2022/01/28 05:59:55;;;;;;;;;;;23.10;24.30;;;;;;5127999;27;19931;-47
2022/01/28 06:02:21;;;;;;;;;;;23.20;24.20;;;;;;5122459;27;20390;-48
2022/01/28 06:04:47;;;;;;;;;;;23.20;24.10;;;;;;5127145;27;19977;-51
2022/01/28 06:07:13;;;;;;;;;;;23.10;24.20;;;;;;5123907;27;19927;-47
2022/01/28 06:09:39;;;;;;;;;;;23.30;24.00;;;;;;5122494;27;19930;-45
2022/01/28 06:12:05;;;;;;;;;;;23.30;24.20;;;;;;5125098;27;19930;-49
2022/01/28 06:14:31;;;;;;;;;;;23.30;24.10;;;;;;5120152;27;19924;-45
2022/01/28 06:16:57;;;;;;;;;;;23.30;24.00;;;;;;5121880;27;19930;-48
2022/01/28 06:19:22;;;;;;;;;;;23.30;24.00;;;;;;5127669;27;20068;-50
2022/01/28 06:21:48;;;;;;;;;;;23.10;24.10;;;;;;5122133;27;19923;-49
2022/01/28 06:24:14;;;;;;;;;;;23.20;24.10;;;;;;5124257;27;19939;-55
2022/01/28 06:26:41;;;;;;;;;;;23.20;24.00;;;;;;5125298;27;19927;-45
2022/01/28 06:29:07;;;;;;;;;;;23.30;24.00;;;;;;5121980;27;19927;-47
2022/01/28 06:31:33;;;;;;;;;;;23.20;24.00;;;;;;5123622;27;19973;-46
2022/01/28 06:33:58;;;;;;;;;;;23.30;24.00;;;;;;5120973;27;20264;-47
2022/01/28 06:36:24;;;;;;;;;;;23.30;23.90;;;;;;5121773;27;19923;-44
2022/01/28 06:38:50;;;;;;;;;;;23.10;24.00;;;;;;5127378;27;19973;-46
2022/01/28 06:41:16;;;;;;;;;;;23.30;23.90;;;;;;5122018;27;20022;-52
2022/01/28 06:43:41;;;;;;;;;;;23.30;24.00;;;;;;5121952;27;19981;-51
2022/01/28 06:46:07;;;;;;;;;;;23.20;24.00;;;;;;5127389;27;19931;-51
2022/01/28 06:48:33;;;;;;;;;;;23.10;24.00;;;;;;5120002;27;20272;-49
2022/01/28 06:50:59;;;;;;;;;;;23.10;24.10;;;;;;5124636;27;19923;-49
2022/01/28 06:53:24;;;;;;;;;;;23.10;24.10;;;;;;5121059;27;19924;-49
2022/01/28 06:55:50;;;;;;;;;;;23.20;24.10;;;;;;5121911;27;20345;-48
2022/01/28 06:58:16;;;;;;;;;;;23.20;23.90;;;;;;5127175;27;19970;-45
2022/01/28 07:00:42;;;;;;;;;;;23.20;23.90;;;;;;5121497;27;19934;-44
2022/01/28 07:03:09;;;;;;;;;;;23.30;23.90;;;;;;5103208;28;19923;-44
2022/01/28 07:05:35;;;;;;;;;;;23.30;23.90;;;;;;5126957;27;20072;-48
2022/01/28 07:08:01;;;;;;;;;;;23.30;23.90;;;;;;5118639;28;20344;-52
2022/01/28 07:10:26;;;;;;;;;;;23.30;23.80;;;;;;5124759;28;19923;-49
2022/01/28 07:12:54;;;;;;;;;;;23.30;23.90;;;;;;5121553;28;19946;-58
2022/01/28 07:15:24;;;;;;;;;;;23.30;24.00;;;;;;5121574;28;20366;-51
2022/01/28 07:17:54;;;;;;;;;;;23.10;24.20;;;;;;5127026;28;19979;-58
2022/01/28 07:20:20;;;;;;;;;;;22.90;24.40;;;;;;5121647;28;19937;-57
2022/01/28 07:22:46;;;;;;;;;;;22.80;24.40;;;;;;5121506;28;19927;-57
2022/01/28 07:25:11;;;;;;;;;;;22.80;24.50;;;;;;5126409;28;19924;-57
2022/01/28 07:27:37;;;;;;;;;;;22.70;24.60;;;;;;5117513;28;19946;-51
2022/01/28 07:30:04;;;;;;;;;;;22.80;24.60;;;;;;5122130;28;19937;-58
2022/01/28 07:32:30;;;;;;;;;;;22.60;24.60;;;;;;5125740;28;19923;-57
2022/01/28 07:34:55;;;;;;;;;;;22.70;24.60;;;;;;5121417;28;20271;-56
2022/01/28 07:37:21;;;;;;;;;;;22.50;24.70;;;;;;5126749;28;20458;-54
2022/01/28 07:39:47;;;;;;;;;;;22.60;24.70;;;;;;5123982;27;20271;-54
2022/01/28 07:42:13;;;;;;;;;;;22.70;24.50;;;;;;5125541;27;19930;-53
2022/01/28 07:44:39;;;;;;;;;;;22.60;24.60;;;;;;5128121;27;20275;-51
2022/01/28 07:47:05;;;;;;;;;;;22.60;24.60;;;;;;5123087;27;19931;-56
2022/01/28 07:49:30;;;;;;;;;;;22.60;24.60;;;;;;5124803;27;19976;-54
2022/01/28 07:51:56;;;;;;;;;;;22.60;24.60;;;;;;5130504;27;19928;-54
2022/01/28 07:54:22;;;;;;;;;;;22.60;24.60;;;;;;5125240;27;19942;-53
2022/01/28 07:56:52;;;;;;;;;;;22.70;24.60;;;;;;5130644;27;19923;-51
2022/01/28 07:59:18;;;;;;;;;;;22.60;24.60;;;;;;5125060;27;20287;-52
2022/01/28 08:01:44;;;;;;;;;;;22.50;24.70;;;;;;5124919;27;20019;-52
2022/01/28 08:04:09;;;;;;;;;;;22.60;24.60;;;;;;5126066;27;19931;-50
2022/01/28 08:06:37;;;;;;;;;;;22.50;24.70;;;;;;5123705;27;19934;-53
2022/01/28 08:09:03;;;;;;;;;;;22.50;24.80;;;;;;5124787;27;20406;-52
2022/01/28 08:11:29;;;;;;;;;;;22.50;24.80;;;;;;5126273;27;19923;-50
2022/01/28 08:13:55;;;;;;;;;;;22.50;24.80;;;;;;5124672;27;20309;-51
2022/01/28 08:16:21;;;;;;;;;;;22.50;24.80;;;;;;5129833;27;19930;-51
2022/01/28 08:18:47;;;;;;;;;;;22.60;24.70;;;;;;5124726;27;19927;-53
2022/01/28 08:21:14;;;;;;;;;;;22.60;24.60;;;;;;5103885;27;19977;-53
2022/01/28 08:23:40;;;;;;;;;;;22.50;24.70;;;;;;5127372;27;20298;-51
2022/01/28 08:26:05;;;;;;;;;;;22.50;24.70;;;;;;5123668;27;19967;-53
2022/01/28 08:28:31;;;;;;;;;;;22.50;24.80;;;;;;5124199;27;20185;-50
2022/01/28 08:30:57;;;;;;;;;;;22.40;24.80;;;;;;5111331;27;19934;-51
2022/01/28 08:33:23;;;;;;;;;;;22.50;24.70;;;;;;5105936;27;20381;-51
2022/01/28 08:35:52;;;;;;;;;;;22.50;24.60;;;;;;5127500;27;19923;-55
2022/01/28 08:38:25;;;;;;;;;;;22.60;24.60;;;;;;5128635;27;20297;-54
2022/01/28 08:40:52;;;;;;;;;;;22.50;24.70;;;;;;5120883;27;19938;-52
2022/01/28 08:43:17;;;;;;;;;;;22.50;24.70;;;;;;5127726;27;20301;-52
2022/01/28 08:45:43;;;;;;;;;;;22.50;24.80;;;;;;5123891;27;19939;-51
2022/01/28 08:48:09;;;;;;;;;;;22.50;24.70;;;;;;5124241;27;19979;-52
2022/01/28 08:50:35;;;;;;;;;;;22.50;24.60;;;;;;5129301;27;20282;-55
2022/01/28 08:53:01;;;;;;;;;;;22.50;24.70;;;;;;5123955;27;19924;-52
2022/01/28 08:55:27;;;;;;;;;;;22.50;24.70;;;;;;5124313;27;20475;-53
2022/01/28 08:57:53;;;;;;;;;;;22.50;24.70;;;;;;5128199;27;19972;-53
2022/01/28 09:00:21;;;;;;;;;;;22.60;24.60;;;;;;5120915;27;19928;-55
2022/01/28 09:02:47;;;;;;;;;;;22.60;24.60;;;;;;5128223;27;19972;-50
2022/01/28 09:05:13;;;;;;;;;;;22.60;24.50;;;;;;5123740;27;19923;-50
2022/01/28 09:07:39;;;;;;;;;;;22.60;24.50;;;;;;5123738;27;19950;-53
2022/01/28 09:10:11;;;;;;;;;;;22.60;24.50;;;;;;5129291;27;20436;-52
2022/01/28 09:12:47;;;;;;;;;;;22.60;24.40;;;;;;5123750;27;20344;-51
2022/01/28 09:15:13;;;;;;;;;;;22.60;24.30;;;;;;5123708;27;19923;-53
2022/01/28 09:17:38;;;;;;;;;;;22.70;24.30;;;;;;5125611;27;19924;-52
2022/01/28 09:20:04;;;;;;;;;;;22.70;24.30;;;;;;5121238;27;19923;-53
2022/01/28 09:22:30;;;;;;;;;;;22.70;24.20;;;;;;5123213;27;19923;-53
2022/01/28 09:24:56;;;;;;;;;;;22.70;24.10;;;;;;5128711;27;19931;-52
2022/01/28 09:27:22;;;;;;;;;;;22.80;24.10;;;;;;5123232;27;20229;-51
2022/01/28 09:29:48;;;;;;;;;;;22.70;24.10;;;;;;5128850;27;19927;-52
2022/01/28 09:32:16;;;;;;;;;;;22.80;24.10;;;;;;5123216;27;19924;-54
2022/01/28 09:34:45;;;;;;;;;;;22.80;24.10;;;;;;5122438;27;20003;-51
2022/01/28 09:37:11;;;;;;;;;;;23.00;23.90;;;;;;5124817;27;20417;-51
2022/01/28 09:39:42;;;;;;;;;;;22.80;24.00;;;;;;5122088;27;19927;-49
2022/01/28 09:42:12;;;;;;;;;;;22.80;24.00;;;;;;5123292;27;19923;-52
2022/01/28 09:44:37;;;;;;;;;;;22.90;23.90;;;;;;5128720;27;19927;-52
2022/01/28 09:47:03;;;;;;;;;;;22.80;24.00;;;;;;5122852;27;19984;-52
2022/01/28 09:49:29;;;;;;;;;;;22.90;23.90;;;;;;5104562;27;19928;-50
2022/01/28 09:51:55;;;;;;;;;;;23.00;23.80;;;;;;5107993;27;20298;-50
2022/01/28 09:54:21;;;;;;;;;;;23.00;23.70;;;;;;5119828;27;19950;-52
2022/01/28 09:56:47;;;;;;;;;;;22.90;23.70;;;;;;5125600;27;19923;-53
2022/01/28 09:59:13;;;;;;;;;;;22.90;23.70;;;;;;5122589;27;19972;-50
2022/01/28 10:01:48;;;;;;;;;;;22.90;23.60;;;;;;5122047;27;19935;-48
2022/01/28 10:04:17;;;;;;;;;;;22.90;23.60;;;;;;5128227;27;19923;-52
2022/01/28 10:06:43;;;;;;;;;;;22.90;23.50;;;;;;5102827;27;19923;-53
2022/01/28 10:09:09;;;;;;;;;;;23.00;23.50;;;;;;5122541;27;19927;-49
2022/01/28 10:11:37;;;;;;;;;;;23.00;23.50;;;;;;5127199;27;19972;-52
2022/01/28 10:14:07;;;;;;;;;;;23.00;23.40;;;;;;5099957;27;20021;-51
2022/01/28 10:16:34;;;;;;;;;;;23.10;23.30;;;;;;5103160;27;19923;-52
2022/01/28 10:19:00;;;;;;;;;;;23.10;23.20;;;;;;5109289;27;20003;-46
2022/01/28 10:21:30;;;;;;;;;;;23.20;23.10;;;;;;5122289;27;19959;-45
2022/01/28 10:23:56;;;;;;;;;;;23.30;23.00;;;;;;5127758;27;20328;-52
2022/01/28 10:26:29;;;;;;;;;;;23.20;23.10;;;;;;5121968;27;19938;-51
2022/01/28 10:28:54;;;;;;;;;;;23.20;23.10;;;;;;5103724;27;19962;-51
2022/01/28 10:31:20;;;;;;;;;;;23.10;23.20;;;;;;5124584;27;19935;-48
2022/01/28 10:33:46;;;;;;;;;;;23.20;23.20;;;;;;5119744;27;19923;-49
2022/01/28 10:36:12;;;;;;;;;;;23.20;23.10;;;;;;5121819;27;19931;-47
2022/01/28 10:38:41;;;;;;;;;;;23.20;23.10;;;;;;5109072;27;19935;-50
2022/01/28 10:41:14;;;;;;;;;;;23.30;22.90;;;;;;5122148;27;19923;-52
2022/01/28 10:43:43;;;;;;;;;;;23.20;23.00;;;;;;5122466;27;19930;-57
2022/01/28 10:46:09;;;;;;;;;;;23.30;23.00;;;;;;5127522;27;19931;-52
2022/01/28 10:48:50;;;;;;;;;;;23.30;23.00;;;;;;5120922;27;19985;-55
2022/01/28 10:51:17;;;;;;;;;;;23.30;23.00;;;;;;5122074;27;19923;-55
2022/01/28 10:54:00;;;;;;;;;;;23.20;23.00;;;;;;5123619;27;19974;-52
2022/01/28 10:56:26;;;;;;;;;;;23.30;22.90;;;;;;5121873;27;19979;-53
2022/01/28 10:58:52;;;;;;;;;;;23.20;23.10;;;;;;5126925;27;19996;-52
2022/01/28 11:01:18;;;;;;;;;;;23.20;23.10;;;;;;5121734;27;19996;-51
2022/01/28 11:03:44;;;;;;;;;;;23.20;23.00;;;;;;5121472;27;20419;-50
2022/01/28 11:06:09;;;;;;;;;;;23.30;22.90;;;;;;5127117;27;19923;-58
2022/01/28 11:08:35;;;;;;;;;;;23.30;22.80;;;;;;5118458;28;19924;-56
2022/01/28 11:11:01;;;;;;;;;;;23.10;22.90;;;;;;5119384;28;19980;-50
2022/01/28 11:13:27;;;;;;;;;;;23.10;22.80;;;;;;5127028;27;19924;-54
2022/01/28 11:15:53;;;;;;;;;;;23.20;22.70;;;;;;5126096;27;19968;-53
2022/01/28 11:18:19;;;;;;;;;;;23.20;22.60;;;;;;5130650;27;19927;-57
2022/01/28 11:20:53;;;;;;;;;;;23.10;22.60;;;;;;5126812;27;19924;-58
2022/01/28 11:23:23;;;;;;;;;;;23.30;22.40;;;;;;5125943;27;19932;-56
2022/01/28 11:26:07;;;;;;;;;;;23.20;22.40;;;;;;5129455;27;20385;-57
2022/01/28 11:28:37;;;;;;;;;;;23.20;22.50;;;;;;5125763;27;19927;-55
2022/01/28 11:31:03;;;;;;;;;;;23.00;22.50;;;;;;5124960;27;19927;-52
2022/01/28 11:33:40;;;;;;;;;;;23.00;22.60;;;;;;5094957;27;20290;-54
2022/01/28 11:36:06;;;;;;;;;;;23.10;22.50;;;;;;5107312;27;19929;-55
2022/01/28 11:38:36;;;;;;;;;;;23.10;22.50;;;;;;5107034;27;19924;-52
2022/01/28 11:41:15;;;;;;;;;;;23.10;22.50;;;;;;5130943;27;19934;-53
2022/01/28 11:43:45;;;;;;;;;;;23.10;22.50;;;;;;5125174;27;19927;-54
2022/01/28 11:46:21;;;;;;;;;;;23.10;22.30;;;;;;5121234;27;19937;-51
2022/01/28 11:48:54;;;;;;;;;;;23.20;22.20;;;;;;5129415;27;20130;-52
2022/01/28 11:51:22;;;;;;;;;;;23.10;22.20;;;;;;5125051;27;19923;-49
2022/01/28 11:53:55;;;;;;;;;;;23.20;22.10;;;;;;5125112;27;19991;-50
2022/01/28 11:56:21;;;;;;;;;;;23.30;21.90;;;;;;5130336;27;19923;-50
2022/01/28 11:58:54;;;;;;;;;;;23.20;22.00;;;;;;5124559;27;19942;-54
2022/01/28 12:01:23;;;;;;;;;;;23.20;22.00;;;;;;5124988;27;20190;-52
2022/01/28 12:03:49;;;;;;;;;;;23.30;21.90;;;;;;5127162;27;19972;-53
2022/01/28 12:06:17;;;;;;;;;;;23.30;22.10;;;;;;5122489;27;20696;-54
2022/01/28 12:08:43;;;;;;;;;;;23.10;22.20;;;;;;5107989;27;20353;-52
2022/01/28 12:11:10;;;;;;;;;;;23.20;22.10;;;;;;5127730;27;20349;-52
2022/01/28 12:13:52;;;;;;;;;;;23.30;22.00;;;;;;5104098;27;19968;-52
2022/01/28 12:16:27;;;;;;;;;;;23.20;22.10;;;;;;5130033;27;20026;-63
2022/01/28 12:18:54;;;;;;;;;;;23.30;22.50;;;;;;5128245;27;19924;-61
2022/01/28 12:21:22;;;;;;;;;;;22.50;23.30;;;;;;5122722;27;20006;-57
2022/01/28 12:23:48;;;;;;;;;;;22.70;23.30;;;;;;5127254;27;20798;-62
2022/01/28 12:26:16;;;;;;;;;;;22.80;23.20;;;;;;5104983;27;19948;-54
2022/01/28 12:28:43;;;;;;;;;;;22.70;23.40;;;;;;5124525;27;20014;-59
2022/01/28 12:31:09;;;;;;;;;;;22.80;23.30;;;;;;5129836;27;19934;-53
2022/01/28 12:33:36;;;;;;;;;;;22.80;23.40;;;;;;5124285;27;20888;-54
2022/01/28 12:36:05;;;;;;;;;;;22.90;23.50;;;;;;5124153;27;19944;-58
2022/01/28 12:38:32;;;;;;;;;;;22.90;23.60;;;;;;5129671;27;19923;-59
2022/01/28 12:41:05;;;;;;;;;;;22.90;23.70;;;;;;5121205;27;20580;-59
2022/01/28 12:43:31;;;;;;;;;;;22.90;23.80;;;;;;5123757;27;19923;-58
2022/01/28 12:46:01;;;;;;;;;;;23.00;23.70;;;;;;5126234;27;19923;-55
2022/01/28 12:48:27;;;;;;;;;;;22.70;24.30;;;;;;5124408;27;20581;-52
2022/01/28 12:50:53;;;;;;;;;;;22.70;24.30;;;;;;5111219;27;19923;-54
2022/01/28 12:53:35;;;;;;;;;;;22.80;24.30;;;;;;5124086;27;20458;-51
2022/01/28 12:56:01;;;;;;;;;;;22.90;23.90;;;;;;5123858;27;20294;-49
2022/01/28 12:58:31;;;;;;;;;;;22.90;23.60;;;;;;5126881;27;20349;-53
2022/01/28 13:01:04;;;;;;;;;;;22.80;23.60;;;;;;5121032;27;20389;-56
2022/01/28 13:03:36;;;;;;;;;;;22.80;23.50;;;;;;5123145;27;19924;-51
2022/01/28 13:06:24;;;;;;;;;;;22.90;23.40;;;;;;5129389;27;19930;-54
2022/01/28 13:08:50;;;;;;;;;;;22.80;23.50;;;;;;5123512;27;19927;-52
2022/01/28 13:11:16;;;;;;;;;;;22.90;23.40;;;;;;5103923;27;20480;-50
2022/01/28 13:13:46;;;;;;;;;;;22.90;23.40;;;;;;5129004;27;19924;-49
2022/01/28 13:16:11;;;;;;;;;;;22.90;23.30;;;;;;5123232;27;19927;-51
2022/01/28 13:18:37;;;;;;;;;;;22.90;23.40;;;;;;5119275;27;20210;-55
2022/01/28 13:21:03;;;;;;;;;;;22.90;23.40;;;;;;5109597;27;19927;-51
2022/01/28 13:23:32;;;;;;;;;;;23.00;23.40;;;;;;5123466;27;19924;-53
2022/01/28 13:26:04;;;;;;;;;;;23.00;23.30;;;;;;5128767;27;19923;-49
2022/01/28 13:28:30;;;;;;;;;;;22.90;23.50;;;;;;5124940;27;19994;-54
2022/01/28 13:30:56;;;;;;;;;;;23.00;23.50;;;;;;5123107;27;19928;-51
2022/01/28 13:33:28;;;;;;;;;;;23.10;23.60;;;;;;5109342;27;19924;-51
2022/01/28 13:35:57;;;;;;;;;;;22.80;24.20;;;;;;5119977;27;19930;-52
2022/01/28 13:38:23;;;;;;;;;;;23.00;24.00;;;;;;5120231;27;19934;-51
2022/01/28 13:40:49;;;;;;;;;;;22.90;24.00;;;;;;5128331;27;19928;-51
2022/01/28 13:43:18;;;;;;;;;;;23.00;23.80;;;;;;5122994;27;19923;-50
2022/01/28 13:45:51;;;;;;;;;;;23.00;23.70;;;;;;5123021;27;19923;-52
2022/01/28 13:48:21;;;;;;;;;;;23.10;23.60;;;;;;5128605;27;19924;-50
2022/01/28 13:50:50;;;;;;;;;;;23.00;23.60;;;;;;5123047;27;19924;-54
2022/01/28 13:55:45;;;;;;;;;;;23.20;23.40;;;;;;5124093;27;20022;-49
2022/01/28 13:58:11;;;;;;;;;;;23.20;23.40;;;;;;5121571;27;19930;-49
2022/01/28 14:00:48;;;;;;;;;;;23.20;23.30;;;;;;5128125;27;20218;-49
2022/01/28 14:03:15;;;;;;;;;;;23.20;23.30;;;;;;5122446;27;19927;-46
2022/01/28 14:05:51;;;;;;;;;;;23.30;23.20;;;;;;5122637;27;20006;-60
2022/01/28 14:08:38;;;;;;;;;;;23.10;23.30;;;;;;5127785;27;19972;-57
2022/01/28 14:11:22;;;;;;;;;;;23.10;23.30;;;;;;5106079;27;19923;-55
2022/01/28 14:14:08;;;;;;;;;;;23.10;23.30;;;;;;5118670;27;20010;-57
2022/01/28 14:16:34;;;;;;;;;;;23.00;23.40;;;;;;5121547;27;19927;-56
2022/01/28 14:19:00;;;;;;;;;;;23.00;23.40;;;;;;5127677;27;20439;-54
2022/01/28 14:21:25;;;;;;;;;;;23.00;23.40;;;;;;5122511;27;19923;-53
2022/01/28 14:23:51;;;;;;;;;;;23.00;23.40;;;;;;5127993;27;19923;-52
2022/01/28 14:26:17;;;;;;;;;;;22.90;23.40;;;;;;5104159;27;20011;-52
2022/01/28 14:31:24;;;;;;;;;;;23.00;23.30;;;;;;5125057;27;19930;-51
2022/01/28 14:33:50;;;;;;;;;;;23.00;23.30;;;;;;5119948;27;19923;-54
2022/01/28 14:36:16;;;;;;;;;;;23.10;23.30;;;;;;5121714;27;19942;-51
2022/01/28 14:38:49;;;;;;;;;;;23.00;23.30;;;;;;5127421;27;19923;-52
2022/01/28 14:41:15;;;;;;;;;;;23.10;23.20;;;;;;5122041;27;20030;-51
2022/01/28 14:43:41;;;;;;;;;;;23.10;23.20;;;;;;5122036;27;20425;-50
2022/01/28 14:46:07;;;;;;;;;;;23.10;23.10;;;;;;5127482;27;20048;-51
2022/01/28 14:48:33;;;;;;;;;;;23.10;23.10;;;;;;5121554;27;19929;-52
2022/01/28 14:50:59;;;;;;;;;;;23.20;23.10;;;;;;5123465;27;19931;-54
2022/01/28 14:53:24;;;;;;;;;;;23.10;23.00;;;;;;5120573;27;19924;-49
2022/01/28 14:55:50;;;;;;;;;;;23.20;23.00;;;;;;5121847;27;19923;-52
2022/01/28 14:58:16;;;;;;;;;;;23.00;23.00;;;;;;5126964;27;19930;-53
2022/01/28 15:00:42;;;;;;;;;;;23.20;22.90;;;;;;5121583;27;19976;-53
2022/01/28 15:03:10;;;;;;;;;;;23.20;22.90;;;;;;5121838;27;19977;-52
2022/01/28 15:05:36;;;;;;;;;;;23.20;22.90;;;;;;5127066;27;20378;-50
2022/01/28 15:08:08;;;;;;;;;;;23.20;22.90;;;;;;5119136;27;19927;-51
2022/01/28 15:10:35;;;;;;;;;;;23.20;23.00;;;;;;5123766;28;19930;-56
2022/01/28 15:13:00;;;;;;;;;;;23.20;22.90;;;;;;5122139;28;19934;-49
2022/01/28 15:15:26;;;;;;;;;;;23.20;22.90;;;;;;5121560;28;19924;-48
2022/01/28 15:17:52;;;;;;;;;;;23.20;22.80;;;;;;5126651;28;20101;-48
2022/01/28 15:20:18;;;;;;;;;;;23.20;22.90;;;;;;5121437;28;19977;-49
2022/01/28 15:22:44;;;;;;;;;;;23.30;22.70;;;;;;5121224;28;19927;-44
2022/01/28 15:25:09;;;;;;;;;;;23.30;22.80;;;;;;5127068;28;19931;-50
2022/01/28 15:27:35;;;;;;;;;;;23.30;22.80;;;;;;5118282;28;20069;-52
2022/01/28 15:30:08;;;;;;;;;;;23.30;22.70;;;;;;5121920;28;19927;-55
2022/01/28 15:38:03;;;;;;;;;;;23.20;22.80;;;;;;5121380;28;20440;-50
2022/01/28 15:40:29;;;;;;;;;;;23.20;22.80;;;;;;5126894;28;19923;-50
2022/01/28 15:43:00;;;;;;;;;;;23.10;22.90;;;;;;5121482;28;19948;-50
2022/01/28 15:45:29;;;;;;;;;;;23.20;22.80;;;;;;5122583;28;20010;-57
2022/01/28 15:47:55;;;;;;;;;;;23.30;22.70;;;;;;5121720;28;19923;-49
2022/01/28 15:50:21;;;;;;;;;;;23.30;22.60;;;;;;5120945;28;19963;-50
2022/01/28 15:52:46;;;;;;;;;;;23.30;22.60;;;;;;5126700;28;19974;-58
2022/01/28 15:55:15;;;;;;;;;;;23.30;22.60;;;;;;5120907;28;20268;-52
2022/01/28 15:57:44;;;;;;;;;;;23.20;22.70;;;;;;5121297;28;19930;-55
2022/01/28 16:00:10;;;;;;;;;;;23.20;22.70;;;;;;5127811;27;19983;-53